createdAt,value
2019-01-23T00:00:55.128Z,99553.58
2019-01-23T00:03:21.084Z,99543.25
2019-01-23T00:05:47.240Z,99539.84
2019-01-23T00:08:13.175Z,99540.70
2019-01-23T00:10:39.066Z,99546.25
2019-01-23T00:13:04.991Z,99545.39
2019-01-23T00:15:30.899Z,99538.10
2019-01-23T00:17:56.817Z,99538.13
2019-01-23T00:20:22.854Z,99531.27
2019-01-23T00:22:48.753Z,99526.10
2019-01-23T00:25:14.734Z,99522.69
2019-01-23T00:27:40.652Z,99524.81
2019-01-23T00:30:10.171Z,99523.52
2019-01-23T00:32:36.074Z,99527.83
2019-01-23T00:35:02.013Z,99527.83
2019-01-23T00:37:27.912Z,99529.50
2019-01-23T00:39:53.848Z,99521.80
2019-01-23T00:42:19.747Z,99519.22
2019-01-23T00:44:45.665Z,99518.34
2019-01-23T00:47:11.603Z,99518.34
2019-01-23T00:49:37.494Z,99517.91
2019-01-23T00:52:03.432Z,99517.47
2019-01-23T00:54:29.542Z,99510.18
2019-01-23T00:56:55.480Z,99515.30
2019-01-23T00:59:21.377Z,99518.29
2019-01-23T01:01:47.266Z,99517.42
2019-01-23T01:04:13.238Z,99511.88
2019-01-23T01:06:39.156Z,99513.58
2019-01-23T01:09:07.185Z,99515.72
2019-01-23T01:11:33.080Z,99515.66
2019-01-23T01:13:59.117Z,99507.98
2019-01-23T01:16:25.015Z,99509.67
2019-01-23T01:18:50.942Z,99509.66
2019-01-23T01:21:16.825Z,99510.45
2019-01-23T01:23:42.771Z,99505.34
2019-01-23T01:26:08.777Z,99504.90
2019-01-23T01:28:34.709Z,99505.33
2019-01-23T01:31:00.642Z,99508.77
2019-01-23T01:33:26.563Z,99505.73
2019-01-23T01:35:52.459Z,99510.92
2019-01-23T01:38:18.421Z,99504.47
2019-01-23T01:40:44.315Z,99515.22
2019-01-23T01:43:10.253Z,99513.90
2019-01-23T01:45:36.186Z,99510.47
2019-01-23T01:48:02.086Z,99506.18
2019-01-23T01:50:28.131Z,99508.73
2019-01-23T01:52:54.060Z,99504.86
2019-01-23T01:55:20.005Z,99507.88
2019-01-23T01:57:45.898Z,99506.09
2019-01-23T02:00:17.726Z,99494.06
2019-01-23T02:02:43.663Z,99504.34
2019-01-23T02:05:09.660Z,99496.17
2019-01-23T02:07:35.547Z,99501.30
2019-01-23T02:10:02.842Z,99491.89
2019-01-23T02:12:28.776Z,99490.56
2019-01-23T02:14:54.695Z,99494.39
2019-01-23T02:17:20.635Z,99483.70
2019-01-23T02:19:46.562Z,99488.42
2019-01-23T02:22:13.298Z,99486.26
2019-01-23T02:24:39.238Z,99478.45
2019-01-23T02:27:05.130Z,99478.08
2019-01-23T02:29:31.054Z,99476.72
2019-01-23T02:31:56.942Z,99473.28
2019-01-23T02:34:22.882Z,99473.75
2019-01-23T02:36:48.780Z,99474.64
2019-01-23T02:39:14.702Z,99472.93
2019-01-23T02:41:40.588Z,99463.14
2019-01-23T02:44:06.485Z,99467.41
2019-01-23T02:46:32.451Z,99462.32
2019-01-23T02:48:58.439Z,99461.48
2019-01-23T02:51:24.388Z,99458.11
2019-01-23T02:53:50.278Z,99461.98
2019-01-23T02:56:16.216Z,99454.31
2019-01-23T02:58:42.115Z,99455.61
2019-01-23T03:01:08.065Z,99450.03
2019-01-23T03:03:33.951Z,99453.91
2019-01-23T03:05:59.925Z,99451.80
2019-01-23T03:08:25.819Z,99446.67
2019-01-23T03:10:51.747Z,99448.40
2019-01-23T03:13:17.679Z,99446.69
2019-01-23T03:15:45.887Z,99442.85
2019-01-23T03:18:11.923Z,99444.14
2019-01-23T03:20:37.849Z,99446.30
2019-01-23T03:23:03.781Z,99442.03
2019-01-23T03:25:29.715Z,99445.46
2019-01-23T03:27:55.680Z,99451.45
2019-01-23T03:30:21.578Z,99443.74
2019-01-23T03:32:47.511Z,99443.75
2019-01-23T03:35:13.616Z,99451.45
2019-01-23T03:37:39.546Z,99447.59
2019-01-23T03:40:09.092Z,99445.44
2019-01-23T03:42:34.995Z,99453.59
2019-01-23T03:45:00.914Z,99451.02
2019-01-23T03:47:26.841Z,99448.85
2019-01-23T03:49:52.713Z,99454.44
2019-01-23T03:52:18.661Z,99458.72
2019-01-23T03:54:44.546Z,99454.45
2019-01-23T03:57:10.438Z,99458.75
2019-01-23T03:59:36.379Z,99460.46
2019-01-23T04:02:02.290Z,99460.94
2019-01-23T04:04:28.274Z,99460.92
2019-01-23T04:06:54.160Z,99461.80
2019-01-23T04:09:20.268Z,99453.23
2019-01-23T04:11:46.135Z,99458.39
2019-01-23T04:14:12.048Z,99457.91
2019-01-23T04:16:37.930Z,99454.03
2019-01-23T04:19:03.828Z,99454.86
2019-01-23T04:21:29.709Z,99452.77
2019-01-23T04:23:55.622Z,99449.73
2019-01-23T04:26:21.585Z,99451.05
2019-01-23T04:28:47.493Z,99460.90
2019-01-23T04:31:13.422Z,99458.27
2019-01-23T04:33:39.286Z,99450.53
2019-01-23T04:36:05.192Z,99447.97
2019-01-23T04:38:31.056Z,99450.47
2019-01-23T04:40:56.976Z,99454.02
2019-01-23T04:43:22.864Z,99454.78
2019-01-23T04:45:48.777Z,99455.19
2019-01-23T04:48:14.642Z,99455.72
2019-01-23T04:51:00.731Z,99447.95
2019-01-23T04:53:28.517Z,99454.03
2019-01-23T04:55:54.391Z,99456.59
2019-01-23T04:58:20.298Z,99452.33
2019-01-23T05:00:46.333Z,99451.44
2019-01-23T05:03:12.235Z,99446.08
2019-01-23T05:05:38.143Z,99447.91
2019-01-23T05:08:04.055Z,99448.28
2019-01-23T05:10:29.948Z,99440.25
2019-01-23T05:12:55.859Z,99443.13
2019-01-23T05:15:21.744Z,99446.27
2019-01-23T05:17:47.627Z,99432.62
2019-01-23T05:20:14.849Z,99443.72
2019-01-23T05:22:40.707Z,99448.35
2019-01-23T05:25:06.702Z,99447.88
2019-01-23T05:27:32.591Z,99446.16
2019-01-23T05:29:58.502Z,99444.80
2019-01-23T05:32:24.380Z,99440.27
2019-01-23T05:34:50.296Z,99445.45
2019-01-23T05:37:16.272Z,99446.77
2019-01-23T05:39:42.192Z,99449.36
2019-01-23T05:42:08.100Z,99450.52
2019-01-23T05:44:33.976Z,99443.68
2019-01-23T05:46:59.900Z,99449.76
2019-01-23T05:49:25.917Z,99454.48
2019-01-23T05:51:51.799Z,99452.37
2019-01-23T05:54:17.708Z,99447.03
2019-01-23T05:56:43.608Z,99447.89
2019-01-23T05:59:09.481Z,99447.44
2019-01-23T06:01:35.401Z,99454.14
2019-01-23T06:04:01.267Z,99463.60
2019-01-23T06:06:27.218Z,99458.03
2019-01-23T06:08:53.108Z,99456.34
2019-01-23T06:11:18.980Z,99454.59
2019-01-23T06:13:44.903Z,99454.16
2019-01-23T06:16:10.827Z,99459.97
2019-01-23T06:18:36.715Z,99460.86
2019-01-23T06:21:02.615Z,99459.97
2019-01-23T06:23:28.521Z,99461.48
2019-01-23T06:25:54.457Z,99453.72
2019-01-23T06:28:20.403Z,99453.56
2019-01-23T06:30:46.287Z,99458.77
2019-01-23T06:33:12.202Z,99457.08
2019-01-23T06:35:38.088Z,99457.08
2019-01-23T06:38:03.973Z,99462.23
2019-01-23T06:40:29.877Z,99460.50
2019-01-23T06:42:55.752Z,99462.55
2019-01-23T06:45:21.757Z,99468.52
2019-01-23T06:47:47.980Z,99470.64
2019-01-23T06:50:18.460Z,99474.36
2019-01-23T06:52:44.367Z,99483.97
2019-01-23T06:55:10.243Z,99481.87
2019-01-23T06:57:36.154Z,99485.76
2019-01-23T07:00:05.243Z,99482.34
2019-01-23T07:02:31.162Z,99483.23
2019-01-23T07:04:57.060Z,99480.67
2019-01-23T07:07:22.974Z,99477.62
2019-01-23T07:09:48.834Z,99486.41
2019-01-23T07:12:14.740Z,99482.63
2019-01-23T07:14:40.620Z,99476.76
2019-01-23T07:17:06.518Z,99469.45
2019-01-23T07:19:32.396Z,99470.80
2019-01-23T07:21:58.331Z,99472.93
2019-01-23T07:24:24.208Z,99466.92
2019-01-23T07:26:50.120Z,99472.88
2019-01-23T07:29:16.066Z,99472.92
2019-01-23T07:31:41.982Z,99470.37
2019-01-23T07:34:07.850Z,99473.80
2019-01-23T07:36:33.868Z,99471.16
2019-01-23T07:38:59.743Z,99479.59
2019-01-23T07:41:25.643Z,99477.86
2019-01-23T07:43:51.525Z,99468.09
2019-01-23T07:46:17.439Z,99475.43
2019-01-23T07:48:43.356Z,99484.73
2019-01-23T07:51:09.281Z,99485.99
2019-01-23T07:53:35.164Z,99484.41
2019-01-23T07:56:01.035Z,99484.06
2019-01-23T07:58:26.938Z,99479.80
2019-01-23T08:00:52.894Z,99478.95
2019-01-23T08:03:18.925Z,99480.23
2019-01-23T08:05:44.829Z,99474.20
2019-01-23T08:08:10.682Z,99475.51
2019-01-23T08:10:36.602Z,99476.38
2019-01-23T08:13:02.602Z,99484.94
2019-01-23T08:15:30.612Z,99480.23
2019-01-23T08:17:56.477Z,99489.19
2019-01-23T08:20:24.389Z,99481.07
2019-01-23T08:22:50.252Z,99489.63
2019-01-23T08:25:16.192Z,99483.64
2019-01-23T08:27:42.547Z,99488.80
2019-01-23T08:30:11.398Z,99493.48
2019-01-23T08:32:37.397Z,99486.60
2019-01-23T08:35:05.082Z,99492.65
2019-01-23T08:37:30.989Z,99485.38
2019-01-23T08:39:56.870Z,99486.66
2019-01-23T08:42:22.780Z,99483.26
2019-01-23T08:44:48.644Z,99486.19
2019-01-23T08:47:14.572Z,99484.09
2019-01-23T08:49:40.442Z,99483.64
2019-01-23T08:52:06.322Z,99488.34
2019-01-23T08:54:32.267Z,99480.22
2019-01-23T08:56:58.133Z,99487.52
2019-01-23T08:59:24.042Z,99482.84
2019-01-23T09:01:49.897Z,99478.12
2019-01-23T09:04:15.810Z,99487.53
2019-01-23T09:06:41.729Z,99478.53
2019-01-23T09:09:07.655Z,99484.98
2019-01-23T09:11:33.533Z,99487.97
2019-01-23T09:13:59.432Z,99490.11
2019-01-23T09:16:25.304Z,99483.24
2019-01-23T09:18:51.221Z,99497.41
2019-01-23T09:21:17.104Z,99495.25
2019-01-23T09:23:42.979Z,99496.95
2019-01-23T09:26:08.889Z,99500.39
2019-01-23T09:28:34.833Z,99501.26
2019-01-23T09:31:07.282Z,99496.97
2019-01-23T09:33:51.636Z,99506.83
2019-01-23T09:36:26.869Z,99496.53
2019-01-23T09:39:14.764Z,99494.41
2019-01-23T09:41:53.787Z,99499.97
2019-01-23T09:44:57.417Z,99492.64
2019-01-23T09:47:42.463Z,99499.42
2019-01-23T09:50:24.091Z,99494.70
2019-01-23T09:52:56.514Z,99494.70
2019-01-23T09:55:22.533Z,99493.41
2019-01-23T09:57:49.357Z,99495.61
2019-01-23T10:00:21.445Z,99493.95
2019-01-23T10:02:47.384Z,99495.59
2019-01-23T10:05:13.438Z,99493.04
2019-01-23T10:07:39.312Z,99501.22
2019-01-23T10:10:09.076Z,99496.44
2019-01-23T10:12:34.954Z,99491.22
2019-01-23T10:15:00.845Z,99496.34
2019-01-23T10:17:26.747Z,99495.02
2019-01-23T10:19:52.746Z,99495.80
2019-01-23T10:22:18.636Z,99497.47
2019-01-23T10:24:44.535Z,99489.31
2019-01-23T10:27:10.433Z,99493.18
2019-01-23T10:29:36.343Z,99497.30
2019-01-23T10:32:02.244Z,99495.14
2019-01-23T10:34:28.120Z,99504.17
2019-01-23T10:36:54.028Z,99498.08
2019-01-23T10:39:19.889Z,99496.17
2019-01-23T10:41:45.797Z,99496.84
2019-01-23T10:44:11.719Z,99492.03
2019-01-23T10:46:37.586Z,99485.44
2019-01-23T10:49:03.497Z,99487.22
2019-01-23T10:51:29.377Z,99487.04
2019-01-23T10:53:55.289Z,99482.52
2019-01-23T10:56:21.173Z,99473.81
2019-01-23T10:58:47.070Z,99479.05
2019-01-23T11:01:13.468Z,99483.34
2019-01-23T11:03:39.455Z,99478.09
2019-01-23T11:06:05.341Z,99466.47
2019-01-23T11:08:31.313Z,99476.27
2019-01-23T11:10:57.217Z,99470.34
2019-01-23T11:13:23.740Z,99472.50
2019-01-23T11:15:49.624Z,99463.52
2019-01-23T11:18:15.743Z,99466.14
2019-01-23T11:20:41.633Z,99463.09
2019-01-23T11:23:07.546Z,99474.61
2019-01-23T11:25:33.418Z,99481.48
2019-01-23T11:27:59.510Z,99475.19
2019-01-23T11:30:25.703Z,99470.37
2019-01-23T11:32:51.729Z,99477.31
2019-01-23T11:35:17.611Z,99472.95
2019-01-23T11:37:43.490Z,99469.48
2019-01-23T11:40:27.405Z,99464.23
2019-01-23T11:42:53.268Z,99467.77
2019-01-23T11:45:19.192Z,99471.45
2019-01-23T11:47:45.080Z,99472.56
2019-01-23T11:50:13.912Z,99472.22
2019-01-23T11:52:39.801Z,99470.44
2019-01-23T11:55:07.532Z,99480.61
2019-01-23T11:57:33.396Z,99476.06
2019-01-23T11:59:59.298Z,99472.05
2019-01-23T12:02:30.744Z,99472.33
2019-01-23T12:04:53.076Z,99464.31
2019-01-23T12:07:19.017Z,99462.07
2019-01-23T12:09:44.987Z,99464.31
2019-01-23T12:12:10.949Z,99474.04
2019-01-23T12:14:36.844Z,99466.81
2019-01-23T12:17:02.742Z,99465.94
2019-01-23T12:19:28.625Z,99476.27
2019-01-23T12:21:54.546Z,99473.98
2019-01-23T12:24:20.537Z,99476.02
2019-01-23T12:26:46.460Z,99467.37
2019-01-23T12:29:12.483Z,99466.39
2019-01-23T12:31:38.401Z,99474.44
2019-01-23T12:34:04.265Z,99487.19
2019-01-23T12:36:30.161Z,99476.33
2019-01-23T12:38:56.175Z,99469.88
2019-01-23T12:41:22.077Z,99459.81
2019-01-23T12:43:47.999Z,99461.23
2019-01-23T12:46:13.859Z,99457.22
2019-01-23T12:48:39.791Z,99459.90
2019-01-23T12:51:05.655Z,99460.19
2019-01-23T12:53:31.624Z,99456.23
2019-01-23T12:55:57.536Z,99455.37
2019-01-23T12:58:23.421Z,99461.80
2019-01-23T13:00:49.360Z,99470.16
2019-01-23T13:03:15.300Z,99462.69
2019-01-23T13:05:41.180Z,99472.25
2019-01-23T13:08:07.133Z,99468.57
2019-01-23T13:10:33.005Z,99468.67
2019-01-23T13:12:58.889Z,99464.46
2019-01-23T13:15:26.220Z,99471.69
2019-01-23T13:17:52.502Z,99468.18
2019-01-23T13:20:20.522Z,99468.05
2019-01-23T13:22:46.422Z,99465.46
2019-01-23T13:25:18.596Z,99469.06
2019-01-23T13:27:44.534Z,99475.03
2019-01-23T13:30:13.441Z,99476.42
2019-01-23T13:32:39.327Z,99476.63
2019-01-23T13:35:09.055Z,99470.99
2019-01-23T13:37:35.025Z,99468.98
2019-01-23T13:40:01.002Z,99472.73
2019-01-23T13:42:26.876Z,99484.61
2019-01-23T13:44:52.795Z,99477.88
2019-01-23T13:47:18.677Z,99477.38
2019-01-23T13:49:44.685Z,99488.27
2019-01-23T13:52:10.556Z,99486.75
2019-01-23T13:54:36.461Z,99491.19
2019-01-23T13:57:02.695Z,99491.21
2019-01-23T13:59:28.632Z,99489.86
2019-01-23T14:01:56.366Z,99496.17
2019-01-23T14:04:22.337Z,99501.23
2019-01-23T14:06:48.289Z,99491.06
2019-01-23T14:09:14.253Z,99494.48
2019-01-23T14:11:40.161Z,99497.96
2019-01-23T14:14:06.103Z,99501.08
2019-01-23T14:16:32.024Z,99498.92
2019-01-23T14:18:57.897Z,99500.96
2019-01-23T14:21:23.812Z,99512.31
2019-01-23T14:23:49.713Z,99513.08
2019-01-23T14:26:15.605Z,99508.86
2019-01-23T14:28:41.527Z,99517.11
2019-01-23T14:31:07.396Z,99528.25
2019-01-23T14:33:33.303Z,99533.00
2019-01-23T14:35:59.208Z,99526.95
2019-01-23T14:38:25.114Z,99531.70
2019-01-23T14:40:51.024Z,99536.00
2019-01-23T14:43:16.956Z,99543.77
2019-01-23T14:45:42.827Z,99544.73
2019-01-23T14:48:08.696Z,99552.39
2019-01-23T14:50:34.626Z,99559.66
2019-01-23T14:53:00.505Z,99551.87
2019-01-23T14:55:26.540Z,99552.34
2019-01-23T14:57:52.536Z,99557.13
2019-01-23T15:00:24.092Z,99555.47
2019-01-23T15:02:50.038Z,99559.28
2019-01-23T15:05:16.059Z,99556.83
2019-01-23T15:07:42.054Z,99561.91
2019-01-23T15:10:20.158Z,99566.15
2019-01-23T15:12:46.106Z,99563.23
2019-01-23T15:15:12.586Z,99565.36
2019-01-23T15:17:39.528Z,99567.90
2019-01-23T15:20:20.512Z,99570.81
2019-01-23T15:22:46.395Z,99570.84
2019-01-23T15:25:12.397Z,99577.72
2019-01-23T15:27:38.393Z,99583.78
2019-01-23T15:30:07.397Z,99578.17
2019-01-23T15:32:33.491Z,99581.17
2019-01-23T15:34:59.476Z,99585.53
2019-01-23T15:37:25.517Z,99586.40
2019-01-23T15:39:51.485Z,99584.23
2019-01-23T15:42:17.511Z,99575.17
2019-01-23T15:44:43.399Z,99587.11
2019-01-23T15:47:09.414Z,99592.72
2019-01-23T15:49:35.301Z,99594.75
2019-01-23T15:52:01.342Z,99596.18
2019-01-23T15:54:27.232Z,99595.72
2019-01-23T15:56:53.218Z,99598.34
2019-01-23T15:59:19.132Z,99598.80
2019-01-23T16:01:45.006Z,99605.25
2019-01-23T16:04:10.912Z,99608.16
2019-01-23T16:06:36.800Z,99607.47
2019-01-23T16:09:04.594Z,99610.86
2019-01-23T16:11:30.459Z,99615.59
2019-01-23T16:13:56.343Z,99616.08
2019-01-23T16:16:22.344Z,99612.63
2019-01-23T16:18:48.241Z,99609.15
2019-01-23T16:21:14.150Z,99621.25
2019-01-23T16:23:40.203Z,99623.36
2019-01-23T16:26:06.267Z,99625.80
2019-01-23T16:28:32.246Z,99623.78
2019-01-23T16:30:58.166Z,99628.91
2019-01-23T16:33:24.074Z,99623.72
2019-01-23T16:35:49.940Z,99624.69
2019-01-23T16:38:15.864Z,99629.80
2019-01-23T16:40:41.735Z,99626.78
2019-01-23T16:43:07.645Z,99628.98
2019-01-23T16:45:33.527Z,99624.20
2019-01-23T16:47:59.423Z,99627.13
2019-01-23T16:50:26.999Z,99628.95
2019-01-23T16:52:53.931Z,99631.48
2019-01-23T16:55:20.024Z,99628.96
2019-01-23T16:57:46.481Z,99641.34
2019-01-23T17:00:15.453Z,99638.77
2019-01-23T17:02:41.395Z,99637.90
2019-01-23T17:05:13.913Z,99646.02
2019-01-23T17:07:39.817Z,99647.76
2019-01-23T17:10:09.545Z,99646.47
2019-01-23T17:12:35.535Z,99649.64
2019-01-23T17:15:01.446Z,99648.30
2019-01-23T17:17:27.421Z,99651.23
2019-01-23T17:19:53.371Z,99651.66
2019-01-23T17:22:19.291Z,99651.17
2019-01-23T17:24:45.227Z,99654.77
2019-01-23T17:27:11.130Z,99659.05
2019-01-23T17:29:37.092Z,99660.73
2019-01-23T17:32:02.986Z,99656.86
2019-01-23T17:34:28.886Z,99666.37
2019-01-23T17:36:54.816Z,99664.18
2019-01-23T17:39:21.352Z,99667.52
2019-01-23T17:41:47.304Z,99671.00
2019-01-23T17:44:13.383Z,99670.58
2019-01-23T17:46:40.021Z,99673.52
2019-01-23T17:49:05.891Z,99677.44
2019-01-23T17:51:31.830Z,99684.82
2019-01-23T17:53:57.714Z,99683.94
2019-01-23T17:56:23.672Z,99686.47
2019-01-23T17:58:49.572Z,99689.02
2019-01-23T18:01:15.583Z,99695.02
2019-01-23T18:03:41.472Z,99696.70
2019-01-23T18:06:07.382Z,99703.63
2019-01-23T18:08:33.339Z,99709.23
2019-01-23T18:10:59.216Z,99712.20
2019-01-23T18:13:25.176Z,99713.95
2019-01-23T18:15:51.159Z,99720.83
2019-01-23T18:18:17.076Z,99727.73
2019-01-23T18:20:43.068Z,99734.58
2019-01-23T18:23:09.007Z,99736.34
2019-01-23T18:25:34.870Z,99737.17
2019-01-23T18:28:00.795Z,99738.45
2019-01-23T18:30:36.471Z,99744.05
2019-01-23T18:33:05.546Z,99739.76
2019-01-23T18:35:50.609Z,99750.54
2019-01-23T18:38:26.199Z,99744.95
2019-01-23T18:41:24.972Z,99744.07
2019-01-23T18:44:26.667Z,99747.95
2019-01-23T18:46:56.483Z,99757.84
2019-01-23T18:49:50.444Z,99766.44
2019-01-23T18:52:16.351Z,99770.29
2019-01-23T18:54:43.046Z,99769.02
2019-01-23T18:57:15.590Z,99775.02
2019-01-23T18:59:41.496Z,99775.45
2019-01-23T19:02:07.368Z,99778.05
2019-01-23T19:04:33.276Z,99780.61
2019-01-23T19:06:59.188Z,99786.63
2019-01-23T19:09:25.238Z,99790.48
2019-01-23T19:11:51.246Z,99798.64
2019-01-23T19:14:17.152Z,99792.21
2019-01-23T19:16:43.037Z,99795.64
2019-01-23T19:19:08.967Z,99796.50
2019-01-23T19:21:34.841Z,99793.50
2019-01-23T19:24:00.769Z,99796.06
2019-01-23T19:26:26.674Z,99799.48
2019-01-23T19:28:52.629Z,99799.05
2019-01-23T19:31:18.582Z,99800.36
2019-01-23T19:33:44.502Z,99812.36
2019-01-23T19:36:10.395Z,99812.81
2019-01-23T19:38:36.302Z,99814.98
2019-01-23T19:41:02.204Z,99808.54
2019-01-23T19:43:28.144Z,99810.23
2019-01-23T19:45:54.023Z,99817.95
2019-01-23T19:48:19.983Z,99816.04
2019-01-23T19:50:46.071Z,99819.61
2019-01-23T19:53:11.955Z,99823.52
2019-01-23T19:55:37.876Z,99830.00
2019-01-23T19:58:04.603Z,99838.11
2019-01-23T20:00:30.675Z,99837.31
2019-01-23T20:02:56.651Z,99841.17
2019-01-23T20:05:23.803Z,99846.73
2019-01-23T20:07:49.674Z,99848.38
2019-01-23T20:10:18.232Z,99857.44
2019-01-23T20:12:44.126Z,99860.42
2019-01-23T20:15:12.855Z,99866.00
2019-01-23T20:17:38.742Z,99864.67
2019-01-23T20:20:08.378Z,99864.30
2019-01-23T20:22:34.254Z,99869.91
2019-01-23T20:25:00.247Z,99872.02
2019-01-23T20:27:26.123Z,99869.52
2019-01-23T20:29:52.102Z,99872.51
2019-01-23T20:32:18.038Z,99873.78
2019-01-23T20:34:43.948Z,99877.20
2019-01-23T20:37:09.820Z,99888.34
2019-01-23T20:39:35.737Z,99883.66
2019-01-23T20:42:01.627Z,99893.94
2019-01-23T20:44:27.587Z,99893.56
2019-01-23T20:46:53.456Z,99899.95
2019-01-23T20:49:19.373Z,99896.45
2019-01-23T20:51:45.235Z,99902.09
2019-01-23T20:54:11.148Z,99908.05
2019-01-23T20:56:37.026Z,99907.23
2019-01-23T20:59:02.931Z,99914.92
2019-01-23T21:01:28.806Z,99914.56
2019-01-23T21:03:54.717Z,99918.41
2019-01-23T21:06:20.629Z,99924.74
2019-01-23T21:08:46.530Z,99929.94
2019-01-23T21:11:12.440Z,99925.68
2019-01-23T21:13:38.303Z,99932.91
2019-01-23T21:16:04.246Z,99941.09
2019-01-23T21:18:30.111Z,99927.84
2019-01-23T21:20:56.039Z,99937.63
2019-01-23T21:23:21.924Z,99941.00
2019-01-23T21:25:47.845Z,99955.95
2019-01-23T21:28:13.733Z,99947.03
2019-01-23T21:30:39.709Z,99952.22
2019-01-23T21:33:05.613Z,99961.06
2019-01-23T21:35:31.531Z,99955.23
2019-01-23T21:37:57.469Z,99953.16
2019-01-23T21:40:26.154Z,99959.98
2019-01-23T21:42:52.071Z,99957.79
2019-01-23T21:45:17.977Z,99964.67
2019-01-23T21:47:46.219Z,99970.53
2019-01-23T21:50:14.692Z,99969.31
2019-01-23T21:52:40.568Z,99969.61
2019-01-23T21:55:08.975Z,99975.65
2019-01-23T21:57:34.835Z,99972.38
2019-01-23T22:00:00.742Z,99980.53
2019-01-23T22:02:26.610Z,99985.87
2019-01-23T22:04:52.534Z,99984.46
2019-01-23T22:07:18.410Z,99994.09
2019-01-23T22:09:44.314Z,99994.32
2019-01-23T22:12:10.218Z,100002.54
2019-01-23T22:14:36.122Z,100005.39
2019-01-23T22:17:01.999Z,100006.33
2019-01-23T22:19:27.928Z,100011.05
2019-01-23T22:21:53.791Z,100013.97
2019-01-23T22:24:19.680Z,100019.60
2019-01-23T22:26:45.569Z,100023.03
2019-01-23T22:29:11.434Z,100017.95
2019-01-23T22:31:37.383Z,100029.19
2019-01-23T22:34:03.366Z,100028.44
2019-01-23T22:36:29.277Z,100027.06
2019-01-23T22:38:55.142Z,100028.42
2019-01-23T22:41:21.066Z,100037.95
2019-01-23T22:43:47.255Z,100040.80
2019-01-23T22:46:13.137Z,100039.31
2019-01-23T22:48:39.045Z,100049.05
2019-01-23T22:51:04.945Z,100047.13
2019-01-23T22:53:30.967Z,100045.84
2019-01-23T22:55:56.891Z,100051.30
2019-01-23T22:58:22.801Z,100051.93
2019-01-23T23:00:52.793Z,100060.66
2019-01-23T23:03:18.657Z,100074.96
2019-01-23T23:05:44.576Z,100071.32
2019-01-23T23:08:10.571Z,100065.85
2019-01-23T23:10:36.522Z,100065.85
2019-01-23T23:13:02.394Z,100075.33
2019-01-23T23:15:28.293Z,100075.41
2019-01-23T23:17:54.209Z,100079.85
2019-01-23T23:20:20.082Z,100080.95
2019-01-23T23:22:45.993Z,100071.95
2019-01-23T23:25:11.909Z,100075.42
2019-01-23T23:27:39.532Z,100088.00
2019-01-23T23:30:20.640Z,100093.48
2019-01-23T23:32:46.598Z,100082.72
2019-01-23T23:35:12.508Z,100093.55
2019-01-23T23:37:38.416Z,100096.86
2019-01-23T23:40:07.998Z,100102.47
2019-01-23T23:42:33.914Z,100102.20
2019-01-23T23:47:25.647Z,100103.17
2019-01-23T23:49:51.556Z,100106.88
2019-01-23T23:52:17.458Z,100100.38
2019-01-23T23:54:43.322Z,100111.52
2019-01-23T23:57:09.237Z,100109.14
2019-01-23T23:59:35.105Z,100118.53
